Главная страница
METAR-TAF:

METAR-TAF

Аэропорты :

Cape May County Airport

Вайлдвуд, Нью-Джерси, США

широта: 39-01N, долгота: 074-55W, высота над уровнем моря: 7 м

Текущие метеонаблюдения

Эта сводка был подготовлена 9 часа и 52 минут назад, в 03:56 UTC
Ветер 19 Узел от западно-северо-западный с порывами до 30 Узел
Температура 13°C
Влажность 62%
Давление 997 hPa
Видимость: 16.1 км
Рассеянная облачность на высоте 3900 фута

METAR: KWWD 170356Z AUTO 29019G30KT 10SM BKN039 13/06 A2945 RMK AO2 PK WND 28035/0334 SLP976 P0001 T01280056

Время: 09:48 (13:48 UTC)


TAF: отсутствует

Метеонаблюдения и прогнозы для более 4000 аэропортов (сводки METAR и TAF).

Имеющиеся станции представлены на карте желтыми и красными точками.

Чтобы увидеть название станции, наведите на нее мышь.

Затем щелкните, чтобы увидеть метеонаблюдения и метеопрогнозы.

Управление картой: чтобы увеличить масштаб, щелкните зеленые кнопки с черным крестиком; чтобы уменьшить масштаб, щелкните зеленую кнопку с тире; для просмотра соседних карт щелкайте зеленые стрелки.


METAR-TAF: